sensor_id;sensor_type;location;lat;lon;timestamp;pressure;altitude;pressure_sealevel;temperature;humidity
27980;BME280;15315;50.836;4.430;2024-03-02T00:09:58;99278.91;;;11.78;93.91
27980;BME280;15315;50.836;4.430;2024-03-02T00:20:00;99285.63;;;12.19;92.78
27980;BME280;15315;50.836;4.430;2024-03-02T00:41:05;99286.50;;;11.65;92.08
27980;BME280;15315;50.836;4.430;2024-03-02T00:51:10;99285.91;;;12.61;88.51
27980;BME280;15315;50.836;4.430;2024-03-02T01:01:10;99288.03;;;11.95;87.56
27980;BME280;15315;50.836;4.430;2024-03-02T01:11:11;99297.78;;;12.05;84.84
27980;BME280;15315;50.836;4.430;2024-03-02T01:21:11;99330.19;;;12.50;83.49
27980;BME280;15315;50.836;4.430;2024-03-02T01:31:11;99330.78;;;12.26;83.72
27980;BME280;15315;50.836;4.430;2024-03-02T01:41:12;99342.31;;;12.46;80.25
27980;BME280;15315;50.836;4.430;2024-03-02T01:51:12;99341.00;;;12.32;79.34
27980;BME280;15315;50.836;4.430;2024-03-02T02:01:13;99344.81;;;12.75;77.56
27980;BME280;15315;50.836;4.430;2024-03-02T02:11:16;99326.94;;;12.47;77.05
27980;BME280;15315;50.836;4.430;2024-03-02T02:21:22;99335.44;;;11.80;80.04
27980;BME280;15315;50.836;4.430;2024-03-02T02:31:22;99328.91;;;12.72;74.36
27980;BME280;15315;50.836;4.430;2024-03-02T02:41:23;99331.09;;;12.41;74.84
27980;BME280;15315;50.836;4.430;2024-03-02T02:51:23;99332.38;;;12.82;73.39
27980;BME280;15315;50.836;4.430;2024-03-02T03:01:25;99320.94;;;12.08;75.89
27980;BME280;15315;50.836;4.430;2024-03-02T03:11:26;99309.94;;;12.19;74.10
27980;BME280;15315;50.836;4.430;2024-03-02T03:21:27;99321.53;;;11.74;76.08
27980;BME280;15315;50.836;4.430;2024-03-02T03:31:28;99305.97;;;11.96;75.66
27980;BME280;15315;50.836;4.430;2024-03-02T03:41:28;99305.97;;;12.58;73.54
27980;BME280;15315;50.836;4.430;2024-03-02T03:51:29;99299.06;;;11.84;75.27
27980;BME280;15315;50.836;4.430;2024-03-02T04:01:29;99305.66;;;11.99;74.96
27980;BME280;15315;50.836;4.430;2024-03-02T04:11:30;99306.78;;;11.79;74.46
27980;BME280;15315;50.836;4.430;2024-03-02T04:21:31;99319.63;;;11.94;73.30
27980;BME280;15315;50.836;4.430;2024-03-02T04:31:31;99328.44;;;12.14;71.78
27980;BME280;15315;50.836;4.430;2024-03-02T04:41:32;99345.25;;;12.08;71.49
27980;BME280;15315;50.836;4.430;2024-03-02T04:51:32;99355.47;;;11.87;72.17
27980;BME280;15315;50.836;4.430;2024-03-02T05:01:32;99366.66;;;12.19;70.08
27980;BME280;15315;50.836;4.430;2024-03-02T05:11:35;99372.31;;;11.71;71.22
27980;BME280;15315;50.836;4.430;2024-03-02T05:21:38;99375.88;;;11.62;70.64
27980;BME280;15315;50.836;4.430;2024-03-02T05:31:39;99379.88;;;11.58;70.66
27980;BME280;15315;50.836;4.430;2024-03-02T05:41:39;99373.75;;;11.65;69.95
27980;BME280;15315;50.836;4.430;2024-03-02T05:51:40;99384.41;;;11.57;69.66
27980;BME280;15315;50.836;4.430;2024-03-02T06:01:41;99382.06;;;10.87;73.03
27980;BME280;15315;50.836;4.430;2024-03-02T06:11:43;99391.13;;;11.25;71.44
27980;BME280;15315;50.836;4.430;2024-03-02T06:21:43;99398.97;;;11.08;71.30
27980;BME280;15315;50.836;4.430;2024-03-02T06:31:43;99392.88;;;10.97;71.97
27980;BME280;15315;50.836;4.430;2024-03-02T06:41:44;99392.44;;;10.92;73.09
27980;BME280;15315;50.836;4.430;2024-03-02T06:51:44;99401.75;;;10.40;74.91
27980;BME280;15315;50.836;4.430;2024-03-02T07:01:44;99408.06;;;10.88;72.72
27980;BME280;15315;50.836;4.430;2024-03-02T07:11:45;99415.72;;;10.93;73.59
27980;BME280;15315;50.836;4.430;2024-03-02T07:21:47;99410.63;;;10.99;73.32
27980;BME280;15315;50.836;4.430;2024-03-02T07:31:47;99412.31;;;10.91;73.83
27980;BME280;15315;50.836;4.430;2024-03-02T07:41:48;99414.56;;;11.24;74.24
27980;BME280;15315;50.836;4.430;2024-03-02T07:51:48;99398.09;;;10.51;76.69
27980;BME280;15315;50.836;4.430;2024-03-02T08:01:49;99391.31;;;10.94;75.38
27980;BME280;15315;50.836;4.430;2024-03-02T08:11:50;99416.72;;;10.92;76.64
27980;BME280;15315;50.836;4.430;2024-03-02T08:21:51;99416.38;;;10.47;80.27
27980;BME280;15315;50.836;4.430;2024-03-02T08:31:51;99430.03;;;10.93;77.74
27980;BME280;15315;50.836;4.430;2024-03-02T08:41:52;99438.91;;;11.80;74.03
27980;BME280;15315;50.836;4.430;2024-03-02T08:51:53;99433.84;;;10.72;75.36
27980;BME280;15315;50.836;4.430;2024-03-02T09:01:56;99451.72;;;11.78;72.57
27980;BME280;15315;50.836;4.430;2024-03-02T09:11:58;99444.94;;;12.01;70.93
27980;BME280;15315;50.836;4.430;2024-03-02T09:21:58;99433.22;;;12.47;68.01
27980;BME280;15315;50.836;4.430;2024-03-02T09:31:59;99428.41;;;12.14;67.72
27980;BME280;15315;50.836;4.430;2024-03-02T09:41:59;99414.50;;;12.63;66.70
27980;BME280;15315;50.836;4.430;2024-03-02T09:52:00;99395.50;;;12.46;67.30
27980;BME280;15315;50.836;4.430;2024-03-02T10:02:02;99398.44;;;12.97;66.04
27980;BME280;15315;50.836;4.430;2024-03-02T10:12:04;99388.78;;;13.55;62.44
27980;BME280;15315;50.836;4.430;2024-03-02T10:22:07;99393.38;;;13.63;62.48
27980;BME280;15315;50.836;4.430;2024-03-02T10:32:09;99385.25;;;13.20;63.04
27980;BME280;15315;50.836;4.430;2024-03-02T10:42:10;99381.72;;;13.96;61.03
27980;BME280;15315;50.836;4.430;2024-03-02T10:52:12;99377.34;;;13.95;60.83
27980;BME280;15315;50.836;4.430;2024-03-02T11:02:13;99357.06;;;13.05;63.26
27980;BME280;15315;50.836;4.430;2024-03-02T11:22:38;99328.03;;;16.18;54.73
27980;BME280;15315;50.836;4.430;2024-03-02T11:32:38;99323.72;;;15.37;54.02
27980;BME280;15315;50.836;4.430;2024-03-02T11:42:38;99318.41;;;16.68;53.95
27980;BME280;15315;50.836;4.430;2024-03-02T11:52:41;99293.59;;;16.86;51.69
27980;BME280;15315;50.836;4.430;2024-03-02T12:02:42;99300.69;;;16.73;52.44
27980;BME280;15315;50.836;4.430;2024-03-02T12:12:45;99278.31;;;17.08;50.68
27980;BME280;15315;50.836;4.430;2024-03-02T12:22:45;99260.47;;;16.60;50.97
27980;BME280;15315;50.836;4.430;2024-03-02T12:32:47;99250.81;;;16.57;50.37
27980;BME280;15315;50.836;4.430;2024-03-02T12:42:48;99255.31;;;15.34;52.57
27980;BME280;15315;50.836;4.430;2024-03-02T12:52:53;99253.88;;;14.59;54.76
27980;BME280;15315;50.836;4.430;2024-03-02T13:02:53;99203.41;;;16.75;50.47
27980;BME280;15315;50.836;4.430;2024-03-02T13:12:56;99206.75;;;17.14;50.14
27980;BME280;15315;50.836;4.430;2024-03-02T13:22:57;99205.06;;;17.42;50.37
27980;BME280;15315;50.836;4.430;2024-03-02T13:32:57;99198.69;;;16.00;50.76
27980;BME280;15315;50.836;4.430;2024-03-02T13:42:57;99196.72;;;16.40;52.16
27980;BME280;15315;50.836;4.430;2024-03-02T13:52:58;99184.47;;;15.60;53.92
27980;BME280;15315;50.836;4.430;2024-03-02T14:02:59;99176.50;;;16.12;53.77
27980;BME280;15315;50.836;4.430;2024-03-02T14:13:00;99170.47;;;16.99;51.77
27980;BME280;15315;50.836;4.430;2024-03-02T14:23:00;99178.34;;;16.11;53.47
27980;BME280;15315;50.836;4.430;2024-03-02T14:33:03;99183.38;;;15.22;56.26
27980;BME280;15315;50.836;4.430;2024-03-02T14:43:03;99176.66;;;15.87;56.00
27980;BME280;15315;50.836;4.430;2024-03-02T14:53:04;99172.13;;;18.02;51.87
27980;BME280;15315;50.836;4.430;2024-03-02T15:03:07;99182.84;;;17.74;51.19
27980;BME280;15315;50.836;4.430;2024-03-02T15:13:08;99180.97;;;17.75;52.94
27980;BME280;15315;50.836;4.430;2024-03-02T15:23:09;99183.16;;;16.32;58.00
27980;BME280;15315;50.836;4.430;2024-03-02T15:33:12;99165.97;;;16.77;59.09
27980;BME280;15315;50.836;4.430;2024-03-02T15:43:12;99140.34;;;17.44;58.64
27980;BME280;15315;50.836;4.430;2024-03-02T15:53:12;99129.13;;;17.18;59.01
27980;BME280;15315;50.836;4.430;2024-03-02T16:03:14;99135.16;;;16.61;59.21
27980;BME280;15315;50.836;4.430;2024-03-02T16:13:14;99128.91;;;17.05;58.54
27980;BME280;15315;50.836;4.430;2024-03-02T16:23:14;99128.78;;;16.09;61.08
27980;BME280;15315;50.836;4.430;2024-03-02T16:33:15;99133.91;;;16.27;61.54
27980;BME280;15315;50.836;4.430;2024-03-02T16:43:15;99133.72;;;16.51;62.33
27980;BME280;15315;50.836;4.430;2024-03-02T16:53:16;99132.06;;;16.79;63.80
27980;BME280;15315;50.836;4.430;2024-03-02T17:03:17;99128.13;;;16.67;64.29
27980;BME280;15315;50.836;4.430;2024-03-02T17:13:18;99138.38;;;15.74;66.56
27980;BME280;15315;50.836;4.430;2024-03-02T17:23:18;99140.09;;;15.28;68.83
27980;BME280;15315;50.836;4.430;2024-03-02T17:33:18;99138.09;;;15.22;70.65
27980;BME280;15315;50.836;4.430;2024-03-02T17:43:19;99137.09;;;15.62;70.42
27980;BME280;15315;50.836;4.430;2024-03-02T17:53:19;99142.53;;;14.52;75.49
27980;BME280;15315;50.836;4.430;2024-03-02T18:03:20;99146.56;;;14.56;75.34
27980;BME280;15315;50.836;4.430;2024-03-02T18:13:21;99148.94;;;14.67;73.36
27980;BME280;15315;50.836;4.430;2024-03-02T18:23:22;99131.34;;;15.57;71.46
27980;BME280;15315;50.836;4.430;2024-03-02T18:33:22;99138.56;;;14.87;73.27
27980;BME280;15315;50.836;4.430;2024-03-02T18:43:23;99130.31;;;15.58;69.86
27980;BME280;15315;50.836;4.430;2024-03-02T18:53:23;99135.00;;;15.33;71.24
27980;BME280;15315;50.836;4.430;2024-03-02T19:03:23;99131.41;;;14.94;72.43
27980;BME280;15315;50.836;4.430;2024-03-02T19:13:24;99113.56;;;15.00;72.28
27980;BME280;15315;50.836;4.430;2024-03-02T19:23:24;99119.34;;;14.97;72.03
27980;BME280;15315;50.836;4.430;2024-03-02T19:33:26;99128.91;;;14.76;73.83
27980;BME280;15315;50.836;4.430;2024-03-02T19:43:26;99127.22;;;15.22;70.85
27980;BME280;15315;50.836;4.430;2024-03-02T19:53:26;99134.13;;;15.33;70.62
27980;BME280;15315;50.836;4.430;2024-03-02T20:03:27;99126.34;;;15.69;69.07
27980;BME280;15315;50.836;4.430;2024-03-02T20:13:27;99118.19;;;15.69;68.35
27980;BME280;15315;50.836;4.430;2024-03-02T20:23:28;99098.22;;;15.62;67.99
27980;BME280;15315;50.836;4.430;2024-03-02T20:33:28;99105.44;;;15.47;69.18
27980;BME280;15315;50.836;4.430;2024-03-02T20:43:29;99112.34;;;15.10;69.89
27980;BME280;15315;50.836;4.430;2024-03-02T20:53:29;99103.19;;;14.56;71.56
27980;BME280;15315;50.836;4.430;2024-03-02T21:03:30;99100.84;;;15.08;69.28
27980;BME280;15315;50.836;4.430;2024-03-02T21:13:30;99107.00;;;15.33;67.94
27980;BME280;15315;50.836;4.430;2024-03-02T21:23:31;99117.16;;;14.92;68.29
27980;BME280;15315;50.836;4.430;2024-03-02T21:33:33;99124.53;;;15.14;67.72
27980;BME280;15315;50.836;4.430;2024-03-02T21:43:34;99115.78;;;14.96;68.47
27980;BME280;15315;50.836;4.430;2024-03-02T21:53:35;99129.63;;;14.54;70.62
27980;BME280;15315;50.836;4.430;2024-03-02T22:03:36;99122.50;;;13.97;75.48
27980;BME280;15315;50.836;4.430;2024-03-02T22:13:37;99111.63;;;14.77;72.28
27980;BME280;15315;50.836;4.430;2024-03-02T22:23:38;99114.56;;;14.11;73.88
27980;BME280;15315;50.836;4.430;2024-03-02T22:33:38;99099.47;;;15.04;70.13
27980;BME280;15315;50.836;4.430;2024-03-02T22:43:39;99089.44;;;15.13;68.37
27980;BME280;15315;50.836;4.430;2024-03-02T22:53:39;99126.84;;;15.72;66.95
27980;BME280;15315;50.836;4.430;2024-03-02T23:03:39;99139.91;;;15.30;67.55
27980;BME280;15315;50.836;4.430;2024-03-02T23:13:40;99141.66;;;15.62;66.66
27980;BME280;15315;50.836;4.430;2024-03-02T23:23:40;99143.47;;;16.00;65.40
27980;BME280;15315;50.836;4.430;2024-03-02T23:33:41;99145.53;;;15.67;66.31
27980;BME280;15315;50.836;4.430;2024-03-02T23:43:42;99158.22;;;16.05;64.23
27980;BME280;15315;50.836;4.430;2024-03-02T23:53:42;99161.81;;;15.36;66.82
